Latest Observation

42 Stations

15 Minute Data | America/Los_Angeles
as of 5/5/26 3:38 AM PDT
Station Date Time Temp (°F) RH (%) Dew Pt (°F) Wind Spd (mph) Wind Dir (°) Wind Gust (mph) Latest Rain (In) Daily Rain (In) Daily Min Temp (°F) Daily Max Temp (°F) Daily Max Wind (mph)
Elk Mt. Farm 5/5/26 0330 50.3   2.7 - - - - - - - 50.0   2.6 51.0   0.9 -
Upper Lake 5/5/26 0330 50.3   2.7 90   6 47.3   0.9 2.7 NW | 311 7.2   5.3 0.00 0.00 50.0   2.7 50.9   0.4 10.6   4.6
Scotts Valley 5/5/26 0330 49.2   1.6 93   2 47.2   0.9 1.3 WSW | 239 3.4   3.4 0.00 0.00 49.1   1.7 50.3   1.0 3.4   0.2
Scotts Valley-South (Bella Vista) 5/5/26 0330 49.1   1.9 87   5 45.3   0.4 1.1 SW | 225 2.8   1.4 0.00 0.00 49.0   1.6 50.1   0.9 3.4   2.1
Kelseyville 5/5/26 0330 49.2   3.5 93   12 47.4   0.2 1.6 SSE | 148 3.3   0.4 0.00 0.00 49.1   3.4 50.9   2.2 6.1   1.1
Kelseyville Remote 5/5/26 0330 50.0   3.5 85   13 45.8   1.0 - - - 0.00 0.00 50.0   3.1 51.6   2.1 -
Kelseyville (Clark Drive) 5/5/26 0330 50.1   2.8 - - - - - 0.00 0.00 50.0   2.6 50.7   2.4 -
Kelsey Bench (Oaklea) 5/5/26 0330 47.7   3.6 94   11 46.0   0.2 0.0 N | 0 0.0   0.0 0.00 0.00 47.5   3.7 49.5   2.3 0.1   0.1
Smith Lane (Kelseyville-South) 5/5/26 0330 48.4   4.0 96   12 47.2   0.4 1.6 SSE | 155 3.2   0.6 0.00 0.00 48.2   4.2 50.5   2.4 6.5   1.1
Bell Hill-West 5/5/26 0330 48.8   3.2 100   8 48.9   1.0 2.0 S | 190 4.8   1.7 0.00 0.00 48.4   3.5 50.3   2.2 7.8   3.7
High Valley Ridgeline (Brassfield) 5/5/26 0330 46.4   1.3 97   2 45.6   1.9 4.7 W | 259 8.5   1.1 0.00 0.00 46.1   1.2 46.8   1.0 19.6   7.4
Wight Way (Adobe Creek) 5/5/26 0300 48.2   3.5 92   9 46.1   0.7 2.6 NW | 310 5.2   2.6 0.00 0.00 48.2   3.3 49.5   2.2 7.7   4.1
Ridgeline Top (Brassfield) 5/5/26 0330 46.4   1.3 - - - - - - - 46.1   1.3 46.6   1.1 -
Ridgeline Low (Brassfield) 5/5/26 0330 48.2   1.2 - - - - - - - 48.0   1.1 48.7   1.0 -
Long Valley (Shannon) 5/5/26 0300 49.5   1.1 93   2 47.5   0.7 1.8 SSW | 196 3.5   0.6 0.00 0.00 48.9   0.7 52.6   1.8 4.5   1.5
High Valley Winery 5/5/26 0330 48.8   3.5 89   2 45.8   2.8 3.1 WSW | 257 5.9   2.3 0.00 0.00 48.3   3.9 49.6   1.0 16.0   4.3
Round Mtn Rd. 5/5/26 0330 48.4   2.4 - - - - - - - 46.9   1.1 49.4   1.1 -
Circle O 5/5/26 0330 47.5   0.0 - - - - - - - 46.2   0.5 48.4   1.3 -
Robertsbridge Vineyards 5/5/26 0330 47.5   3.4 100   14 47.5   0.8 - - - - - 47.0   3.8 48.2   3.0 -
Urgency Vineyard 5/5/26 0330 48.1   1.7 89   2 45.0   1.0 5.2 SW | 228 10.1   6.4 0.00 0.00 48.1   1.6 48.6   1.9 10.9   1.9
Red Hills (Beckstoffer) 5/5/26 0330 48.3   1.6 89   1 45.4   1.2 - - - 0.00 0.00 48.3   1.3 48.9   1.5 -
Winters (Shannon) 5/5/26 0330 47.4   1.4 86   1 43.4   1.2 4.7 WSW | 252 9.5   5.7 0.00 0.00 47.0   1.3 48.1   1.5 14.8   5.0
Secret Pond (Shannon) 5/5/26 0330 46.9   0.5 86   6 43.0   1.2 7.0 NW | 311 12.9   11.0 0.00 0.00 46.4   1.1 47.4   1.7 16.1   7.0
Rolling Knolls (Shannon) 5/5/26 0330 49.9   1.2 82   0 44.6   1.1 0.7 NW | 321 3.1   0.5 0.00 0.00 49.3   0.8 50.7   1.6 12.7   3.7
Lower Lake 5/5/26 0330 50.0   0.6 83   1 45.0   1.0 2.2 WNW | 285 8.6   8.1 0.00 0.00 49.7   0.7 50.5   1.8 19.0   9.1
Adamson Ranch 5/5/26 0330 51.4   0.0 82   9 46.0   2.8 0.3 WNW | 286 2.2   0.0 0.00 0.00 50.5   0.0 51.5   1.5 6.1   3.7
Middletown (Diamond D) 5/5/26 0330 51.9   2.3 92   4 49.6   3.3 0.3 S | 190 1.3   1.3 0.00 0.01 51.4   1.9 52.3   0.4 7.6   5.9
Middletown-West (Domaine Helena) 5/5/26 0330 50.3   1.1 93   4 48.4   2.3 0.6 E | 90 1.8   3.3 0.00 0.01 50.1   1.3 51.2   0.4 11.4   3.9
Middletown-South 5/5/26 0330 50.8   1.5 91   3 48.4   2.2 0.6 N | 2 2.4   0.2 0.00 0.00 50.6   1.5 51.8   0.3 17.6   13.0
Jim Davis (Langtry) 5/5/26 0330 51.2   2.5 95   4 49.9   3.6 0.5 SE | 146 1.9   1.2 0.00 0.05 51.0   2.9 51.7   1.3 6.2   3.1
Napa Valley Basin 5/5/26 0330 52.8   8.8 95   1 51.5   8.4 1.4 SSW | 194 2.5   0.1 0.00 0.04 52.2   9.2 52.8   6.3 6.0   3.7
Lower Bohn 5/5/26 0330 50.7   5.9 97   1 49.8   5.6 1.0 WSW | 254 2.0   0.1 0.00 0.06 50.2   6.8 51.4   4.9 6.4   3.2
Upper Bohn-North 5/5/26 0330 51.6   4.3 100   5 51.6   5.7 0.9 SSE | 165 2.2   0.9 0.00 0.05 51.1   4.9 51.9   1.8 5.4   2.3
Snell Peak Blk#9 5/5/26 0330 51.2   3.4 100   5 51.2   4.8 0.1 S | 175 1.2   0.0 0.00 0.04 50.8   3.4 51.7   1.6 5.3   1.8
Coyote Lake West 5/5/26 0330 51.8   3.6 96   4 50.8   4.7 1.1 SE | 145 2.0   0.7 0.00 0.03 51.6   4.6 52.2   1.4 6.4   4.5
Coyote Lake Northeast 5/5/26 0330 52.0   5.4 97   4 51.1   6.6 - - - - - 51.7   5.1 52.2   1.8 -
Coyote Lake East 5/5/26 0330 53.2   7.9 98   1 52.6   8.2 - - - - - 52.4   7.2 53.2   5.2 -
Morgan Valley 5/5/26 0330 47.6   0.1 99   1 47.3   0.5 8.0 WNW | 287 12.0   7.2 0.00 0.00 47.3   0.0 47.9   0.6 22.8   12.9
Mine Pit North 5/5/26 0330 48.5   2.1 98   9 48.2   4.6 3.3 SW | 216 5.2   1.5 - - 48.2   2.4 49.2   0.6 17.1   10.4
Mine Pit South 5/5/26 0330 48.1   1.3 100   8 48.1   3.6 5.4 W | 259 7.5   0.4 0.00 0.06 47.6   1.1 48.8   0.3 13.0   6.0
Cow Mountain 5/5/26 0330 41.3   2.8 - - 16.5 WNW | 286 25.4   20.2 0.00 0.01 41.1   2.4 41.5   5.2 29.8   22.6
Ukiah-SE (Ruddick) 5/5/26 0330 52.3   2.8 81   5 46.7   1.2 4.9 N | 9 8.1   5.9 0.00 0.00 51.8   2.4 52.6   1.2 9.4   3.2
Max     53.2 100 52.6 16.5 - 25.4 0.00 0.06 52.4 53.2 29.8
Avg     49.3 92 47.6 2.8 - 5.5 0.00 - - - -
Min     41.3 81 43.0 0.0 - 0.0 0.00 0.00 41.1 41.5 0.1